Time;durP1;ratioP1;P1;durP2;ratioP2;P2;SDS_P1;SDS_P2;PMS_P1;PMS_P2;Temp;Humidity;BMP_temperature;BMP_pressure;BME280_temperature;BME280_humidity;BME280_pressure;Samples;Min_cycle;Max_cycle;Signal;HPM_P1;HPM_P2
2023/10/13 00:01:54;;;;;;;15.73;6.55;;;;;;;;;;5073419;28;20032;-78
2023/10/13 00:04:24;;;;;;;8.85;6.05;;;;;;;;;;5071680;28;20039;-79
2023/10/13 00:07:01;;;;;;;10.98;6.72;;;;;;;;;;5064570;28;20091;-78
2023/10/13 00:09:33;;;;;;;12.25;6.55;;;;;;;;;;5069788;28;20375;-78
2023/10/13 00:11:59;;;;;;;10.13;6.32;;;;;;;;;;5072719;28;20476;-78
2023/10/13 00:14:33;;;;;;;12.48;6.30;;;;;;;;;;5069075;28;20063;-78
2023/10/13 00:17:05;;;;;;;10.38;6.50;;;;;;;;;;5069678;28;20039;-78
2023/10/13 00:19:38;;;;;;;8.90;5.60;;;;;;;;;;5065158;28;20032;-78
2023/10/13 00:22:10;;;;;;;9.35;6.05;;;;;;;;;;5070256;28;20484;-79
2023/10/13 00:24:47;;;;;;;11.95;7.90;;;;;;;;;;5047290;28;20038;-79
2023/10/13 00:27:30;;;;;;;10.23;5.93;;;;;;;;;;5066559;28;20404;-79
2023/10/13 00:32:55;;;;;;;9.50;6.25;;;;;;;;;;5066906;28;20044;-78
2023/10/13 00:35:25;;;;;;;11.35;5.95;;;;;;;;;;5058077;28;20066;-78
2023/10/13 00:37:54;;;;;;;9.05;6.15;;;;;;;;;;5063543;28;20107;-78
2023/10/13 00:40:43;;;;;;;10.05;6.15;;;;;;;;;;5070791;28;20393;-84
2023/10/13 00:45:54;;;;;;;11.55;6.25;;;;;;;;;;5071722;28;20093;-84
2023/10/13 00:48:29;;;;;;;10.75;6.60;;;;;;;;;;5070238;28;20028;-84
2023/10/13 00:51:07;;;;;;;9.85;5.90;;;;;;;;;;5068777;28;20031;-83
2023/10/13 00:53:37;;;;;;;10.65;5.93;;;;;;;;;;5069264;28;20036;-83
2023/10/13 00:56:18;;;;;;;8.38;5.65;;;;;;;;;;5069994;28;20491;-84
2023/10/13 00:58:46;;;;;;;7.70;5.20;;;;;;;;;;5069741;28;20543;-83
2023/10/13 01:01:17;;;;;;;9.05;5.68;;;;;;;;;;5050395;28;22036;-82
2023/10/13 01:03:48;;;;;;;12.52;5.95;;;;;;;;;;5062820;28;20025;-82
2023/10/13 01:06:16;;;;;;;10.52;5.78;;;;;;;;;;5048406;28;20401;-84
2023/10/13 01:08:44;;;;;;;9.20;5.35;;;;;;;;;;5069296;28;20035;-84
2023/10/13 01:11:10;;;;;;;9.95;5.35;;;;;;;;;;5063791;28;20020;-84
2023/10/13 01:13:36;;;;;;;8.52;5.28;;;;;;;;;;5073426;28;20060;-75
2023/10/13 01:16:04;;;;;;;8.68;4.85;;;;;;;;;;5063887;28;20056;-77
2023/10/13 01:18:29;;;;;;;9.65;5.40;;;;;;;;;;5048948;28;20393;-84
2023/10/13 01:20:58;;;;;;;10.15;4.72;;;;;;;;;;5068006;28;20040;-83
2023/10/13 01:23:25;;;;;;;7.05;5.25;;;;;;;;;;5067591;28;20062;-80
2023/10/13 01:25:51;;;;;;;7.72;4.90;;;;;;;;;;5048239;28;20107;-85
2023/10/13 01:28:17;;;;;;;7.70;4.88;;;;;;;;;;5069028;28;20039;-81
2023/10/13 01:30:44;;;;;;;7.75;4.90;;;;;;;;;;5070478;28;20274;-84
2023/10/13 01:33:10;;;;;;;10.10;4.60;;;;;;;;;;5063894;28;20423;-84
2023/10/13 01:35:42;;;;;;;8.52;4.60;;;;;;;;;;5066138;28;20028;-83
2023/10/13 01:38:08;;;;;;;8.65;4.65;;;;;;;;;;5052108;28;20029;-81
2023/10/13 01:40:35;;;;;;;8.73;4.40;;;;;;;;;;5059874;28;20029;-78
2023/10/13 01:43:01;;;;;;;10.02;4.13;;;;;;;;;;5067834;28;20032;-78
2023/10/13 01:45:28;;;;;;;12.48;4.35;;;;;;;;;;5068564;28;20475;-78
2023/10/13 01:47:55;;;;;;;9.68;4.60;;;;;;;;;;5067216;28;20547;-78
2023/10/13 01:50:27;;;;;;;11.13;4.40;;;;;;;;;;5068197;28;20028;-78
2023/10/13 01:53:00;;;;;;;7.60;3.65;;;;;;;;;;5049285;28;20035;-78
2023/10/13 01:55:25;;;;;;;10.35;4.32;;;;;;;;;;5061439;28;20047;-78
2023/10/13 01:57:51;;;;;;;9.60;3.95;;;;;;;;;;5043266;28;20032;-78
2023/10/13 02:00:20;;;;;;;6.45;3.95;;;;;;;;;;5063104;28;20035;-78
2023/10/13 02:02:46;;;;;;;6.75;3.53;;;;;;;;;;5066484;28;20024;-78
2023/10/13 02:05:12;;;;;;;12.40;3.75;;;;;;;;;;5048855;28;20549;-78
2023/10/13 02:07:38;;;;;;;8.20;4.07;;;;;;;;;;5066341;28;20028;-78
2023/10/13 02:10:05;;;;;;;9.32;3.80;;;;;;;;;;5050638;28;20039;-78
2023/10/13 02:12:43;;;;;;;7.85;3.38;;;;;;;;;;5068132;28;20027;-78
2023/10/13 02:15:13;;;;;;;8.57;3.85;;;;;;;;;;5068176;28;20016;-78
2023/10/13 02:17:42;;;;;;;7.13;3.75;;;;;;;;;;5070981;28;20025;-78
2023/10/13 02:20:14;;;;;;;7.15;3.50;;;;;;;;;;5068104;28;20021;-78
2023/10/13 02:22:48;;;;;;;7.50;3.50;;;;;;;;;;5072114;28;20016;-78
2023/10/13 02:25:17;;;;;;;11.77;3.33;;;;;;;;;;5068550;28;20476;-78
2023/10/13 02:27:43;;;;;;;7.22;3.10;;;;;;;;;;5070089;28;20077;-78
2023/10/13 02:30:14;;;;;;;7.80;3.42;;;;;;;;;;5069404;28;20031;-78
2023/10/13 02:32:43;;;;;;;5.68;3.00;;;;;;;;;;5067589;28;20543;-78
2023/10/13 02:35:15;;;;;;;8.18;3.10;;;;;;;;;;5055074;28;20472;-78
2023/10/13 02:37:43;;;;;;;6.95;3.30;;;;;;;;;;5060921;28;20052;-78
2023/10/13 02:40:11;;;;;;;9.65;4.13;;;;;;;;;;5071366;28;20388;-78
2023/10/13 02:42:36;;;;;;;5.35;3.20;;;;;;;;;;5060946;28;20454;-78
2023/10/13 02:45:03;;;;;;;7.32;3.30;;;;;;;;;;5057402;28;20113;-78
2023/10/13 02:47:31;;;;;;;8.30;3.45;;;;;;;;;;5070753;28;20099;-78
2023/10/13 02:50:00;;;;;;;7.25;3.30;;;;;;;;;;5048973;28;20020;-77
2023/10/13 02:52:26;;;;;;;5.80;3.38;;;;;;;;;;5071062;28;20147;-79
2023/10/13 02:54:52;;;;;;;7.03;3.15;;;;;;;;;;5050486;28;20493;-79
2023/10/13 02:57:17;;;;;;;6.10;3.47;;;;;;;;;;5073454;28;20024;-79
2023/10/13 02:59:55;;;;;;;5.63;3.17;;;;;;;;;;5062185;28;20388;-79
2023/10/13 03:02:25;;;;;;;5.88;2.90;;;;;;;;;;5069478;28;20028;-79
2023/10/13 03:04:51;;;;;;;7.30;3.03;;;;;;;;;;5073117;28;20480;-79
2023/10/13 03:07:23;;;;;;;9.73;3.50;;;;;;;;;;5054745;28;20119;-79
2023/10/13 03:09:52;;;;;;;10.35;3.53;;;;;;;;;;5079955;28;20027;-79
2023/10/13 03:12:18;;;;;;;6.32;3.80;;;;;;;;;;5073512;28;20464;-79
2023/10/13 03:14:47;;;;;;;7.25;4.00;;;;;;;;;;5076975;28;20028;-79
2023/10/13 03:17:22;;;;;;;8.15;3.83;;;;;;;;;;5073014;28;20028;-79
2023/10/13 03:19:49;;;;;;;8.88;4.47;;;;;;;;;;5066723;28;20029;-79
2023/10/13 03:22:16;;;;;;;7.93;3.65;;;;;;;;;;5071090;28;20400;-79
2023/10/13 03:24:46;;;;;;;9.00;4.38;;;;;;;;;;5072241;28;20070;-79
2023/10/13 03:27:16;;;;;;;7.53;4.80;;;;;;;;;;5053361;28;20016;-79
2023/10/13 03:29:44;;;;;;;7.15;4.05;;;;;;;;;;5077641;28;20025;-79
2023/10/13 03:32:15;;;;;;;8.23;4.45;;;;;;;;;;5072812;28;20044;-79
2023/10/13 03:37:37;;;;;;;8.02;4.65;;;;;;;;;;5034353;28;20129;-79
2023/10/13 03:40:56;;;;;;;9.75;4.47;;;;;;;;;;5081795;28;20530;-79
2023/10/13 03:43:04;;;;;;;8.60;4.13;;;;;;;;;;5058470;28;20051;-79
2023/10/13 03:45:42;;;;;;;9.02;4.43;;;;;;;;;;5074012;28;20491;-79
2023/10/13 03:48:28;;;;;;;10.38;5.10;;;;;;;;;;5072729;28;20050;-80
2023/10/13 03:51:06;;;;;;;7.53;4.10;;;;;;;;;;5083858;28;20032;-79
2023/10/13 03:53:33;;;;;;;8.30;4.00;;;;;;;;;;5066453;28;20029;-79
2023/10/13 03:56:11;;;;;;;8.68;5.35;;;;;;;;;;5067031;28;20269;-80
2023/10/13 03:58:39;;;;;;;10.65;4.70;;;;;;;;;;5068672;28;20027;-79
2023/10/13 04:01:09;;;;;;;10.65;5.45;;;;;;;;;;5066486;28;20531;-84
2023/10/13 04:03:36;;;;;;;9.77;5.50;;;;;;;;;;5071045;28;20107;-84
2023/10/13 04:06:08;;;;;;;10.00;5.13;;;;;;;;;;5069244;28;20028;-84
2023/10/13 04:14:55;;;;;;;9.93;6.15;;;;;;;;;;5064397;28;20039;-82
2023/10/13 04:17:14;;;;;;;11.23;5.93;;;;;;;;;;5062469;28;20439;-83
2023/10/13 04:20:12;;;;;;;12.10;6.97;;;;;;;;;;5043339;28;20806;-85
2023/10/13 04:23:16;;;;;;;11.38;6.50;;;;;;;;;;5061668;28;20401;-85
2023/10/13 04:41:42;;;;;;;15.65;10.70;;;;;;;;;;5066850;28;20583;-85
2023/10/13 04:54:53;;;;;;;17.55;11.35;;;;;;;;;;5068118;28;20404;-80
2023/10/13 04:57:47;;;;;;;14.55;10.70;;;;;;;;;;5062806;28;20487;-80
2023/10/13 05:03:03;;;;;;;15.68;10.73;;;;;;;;;;5066883;28;20027;-80
2023/10/13 05:05:45;;;;;;;14.07;9.75;;;;;;;;;;5045556;28;20029;-80
2023/10/13 06:29:33;;;;;;;7.72;4.88;;;;;;;;;;5071104;28;20036;-80
2023/10/13 06:32:01;;;;;;;9.45;5.00;;;;;;;;;;5076297;28;20020;-80
2023/10/13 06:34:44;;;;;;;7.88;5.07;;;;;;;;;;5077499;28;20029;-80
2023/10/13 06:37:22;;;;;;;7.53;5.07;;;;;;;;;;5052141;28;20020;-80
2023/10/13 06:39:57;;;;;;;13.77;4.88;;;;;;;;;;5073582;28;20095;-80
2023/10/13 06:42:29;;;;;;;8.05;4.80;;;;;;;;;;5051181;28;20028;-80
2023/10/13 06:45:00;;;;;;;13.50;5.72;;;;;;;;;;5054267;28;20036;-80
2023/10/13 06:47:27;;;;;;;11.02;6.13;;;;;;;;;;5068769;28;20064;-80
2023/10/13 06:49:54;;;;;;;8.70;5.50;;;;;;;;;;5057810;28;20587;-80
2023/10/13 06:52:22;;;;;;;9.15;5.00;;;;;;;;;;5056167;28;20039;-80
2023/10/13 06:54:50;;;;;;;8.45;5.28;;;;;;;;;;5046894;28;20028;-80
2023/10/13 06:57:20;;;;;;;10.68;5.30;;;;;;;;;;5079176;28;20040;-80
2023/10/13 06:59:46;;;;;;;12.13;5.18;;;;;;;;;;5070112;28;20020;-80
2023/10/13 07:02:21;;;;;;;11.43;5.20;;;;;;;;;;5065588;28;20480;-79
2023/10/13 07:04:47;;;;;;;11.07;4.60;;;;;;;;;;5070197;28;20016;-80
2023/10/13 07:07:15;;;;;;;9.15;5.32;;;;;;;;;;5073549;28;20142;-79
2023/10/13 07:09:55;;;;;;;9.77;4.90;;;;;;;;;;5056624;28;20027;-80
2023/10/13 07:12:27;;;;;;;12.93;5.20;;;;;;;;;;5071211;28;20028;-80
2023/10/13 07:14:59;;;;;;;9.75;4.95;;;;;;;;;;5066709;28;20114;-80
2023/10/13 07:17:24;;;;;;;11.85;5.13;;;;;;;;;;5071251;28;20460;-80
2023/10/13 07:19:53;;;;;;;10.73;5.20;;;;;;;;;;5068728;28;20043;-80
2023/10/13 07:22:19;;;;;;;12.35;5.35;;;;;;;;;;5073011;28;20059;-80
2023/10/13 07:24:49;;;;;;;10.60;5.03;;;;;;;;;;5053612;28;20048;-80
2023/10/13 07:27:25;;;;;;;14.88;5.43;;;;;;;;;;5072535;28;20035;-79
2023/10/13 07:29:56;;;;;;;9.30;4.50;;;;;;;;;;5065284;28;20047;-80
2023/10/13 07:32:26;;;;;;;12.57;5.30;;;;;;;;;;5070473;28;20476;-76
2023/10/13 07:34:57;;;;;;;12.80;4.72;;;;;;;;;;5067311;28;20031;-77
2023/10/13 07:37:28;;;;;;;12.07;4.82;;;;;;;;;;5065522;28;20025;-77
2023/10/13 07:39:53;;;;;;;12.15;5.05;;;;;;;;;;5065032;28;20373;-79
2023/10/13 07:42:23;;;;;;;13.57;5.40;;;;;;;;;;5048002;28;20032;-76
2023/10/13 07:44:49;;;;;;;10.48;5.45;;;;;;;;;;5061171;28;20029;-76
2023/10/13 07:47:14;;;;;;;13.05;5.55;;;;;;;;;;5069045;28;20099;-76
2023/10/13 07:49:41;;;;;;;12.35;5.20;;;;;;;;;;5066710;28;20498;-78
2023/10/13 07:54:55;;;;;;;13.55;5.05;;;;;;;;;;5066735;28;20428;-78
2023/10/13 07:57:29;;;;;;;9.70;5.05;;;;;;;;;;5075841;28;20020;-78
2023/10/13 08:00:08;;;;;;;15.63;5.13;;;;;;;;;;5067493;28;20162;-78
2023/10/13 08:03:07;;;;;;;13.05;4.78;;;;;;;;;;5063645;28;20032;-78
2023/10/13 08:05:29;;;;;;;14.32;4.93;;;;;;;;;;5067383;28;20033;-78
2023/10/13 08:07:55;;;;;;;12.27;5.30;;;;;;;;;;5068053;28;20033;-78
2023/10/13 08:10:29;;;;;;;14.98;4.93;;;;;;;;;;5054473;28;20492;-78
2023/10/13 08:12:56;;;;;;;11.13;4.60;;;;;;;;;;5064233;28;20027;-78
2023/10/13 08:15:31;;;;;;;13.07;4.80;;;;;;;;;;5050730;28;20024;-78
2023/10/13 08:17:58;;;;;;;11.60;4.90;;;;;;;;;;5052102;28;20033;-78
2023/10/13 08:20:26;;;;;;;14.48;5.15;;;;;;;;;;5066366;28;20383;-78
2023/10/13 08:23:09;;;;;;;15.52;5.55;;;;;;;;;;5063618;28;20098;-78
2023/10/13 08:31:22;;;;;;;9.63;5.10;;;;;;;;;;5068832;28;20703;-78
2023/10/13 08:33:48;;;;;;;14.90;5.18;;;;;;;;;;5046152;28;20098;-78
2023/10/13 08:36:23;;;;;;;10.25;5.13;;;;;;;;;;5071649;28;21985;-78
2023/10/13 08:38:51;;;;;;;12.05;5.32;;;;;;;;;;5071221;28;20020;-79
2023/10/13 08:44:03;;;;;;;11.82;5.00;;;;;;;;;;5066232;28;20020;-80
2023/10/13 08:46:38;;;;;;;11.77;5.13;;;;;;;;;;5051893;28;20024;-80
2023/10/13 08:49:17;;;;;;;11.38;4.95;;;;;;;;;;5069311;28;20036;-80
2023/10/13 08:51:43;;;;;;;13.00;5.20;;;;;;;;;;5068450;28;20036;-75
2023/10/13 08:54:19;;;;;;;18.90;5.30;;;;;;;;;;5067511;28;20036;-76
2023/10/13 08:59:38;;;;;;;13.15;5.35;;;;;;;;;;5039040;28;20070;-76
2023/10/13 09:02:17;;;;;;;14.88;5.35;;;;;;;;;;5048909;28;20031;-84
2023/10/13 09:04:46;;;;;;;11.63;5.10;;;;;;;;;;5066711;28;21814;-86
2023/10/13 09:07:25;;;;;;;12.52;5.82;;;;;;;;;;5069305;28;20016;-86
2023/10/13 09:12:18;;;;;;;12.68;5.05;;;;;;;;;;5064294;28;20107;-83
2023/10/13 09:14:57;;;;;;;11.60;5.35;;;;;;;;;;5062062;28;20036;-86
2023/10/13 09:25:34;;;;;;;10.40;5.30;;;;;;;;;;5062884;28;20504;-83
2023/10/13 09:28:02;;;;;;;17.23;5.72;;;;;;;;;;5047936;28;20024;-80
2023/10/13 09:30:31;;;;;;;11.60;5.10;;;;;;;;;;5052259;28;20024;-80
2023/10/13 09:33:04;;;;;;;13.88;5.38;;;;;;;;;;5069785;28;20107;-81
2023/10/13 09:35:34;;;;;;;13.77;5.28;;;;;;;;;;5048303;28;20030;-80
2023/10/13 09:38:02;;;;;;;11.82;4.80;;;;;;;;;;5066750;28;20032;-80
2023/10/13 09:40:37;;;;;;;14.13;5.15;;;;;;;;;;5044444;28;20028;-80
2023/10/13 09:43:14;;;;;;;12.60;5.00;;;;;;;;;;5047719;28;20472;-80
2023/10/13 09:45:42;;;;;;;13.85;5.40;;;;;;;;;;5065752;28;20051;-81
2023/10/13 09:48:21;;;;;;;15.88;5.45;;;;;;;;;;5064247;28;20031;-81
2023/10/13 09:50:48;;;;;;;15.30;5.22;;;;;;;;;;5047333;28;20438;-80
2023/10/13 09:53:17;;;;;;;9.30;5.60;;;;;;;;;;5060138;28;20029;-80
2023/10/13 09:55:49;;;;;;;12.98;5.22;;;;;;;;;;5046737;28;20126;-80
2023/10/13 09:58:19;;;;;;;14.77;5.50;;;;;;;;;;5067470;28;20017;-80
2023/10/13 10:00:57;;;;;;;17.17;5.90;;;;;;;;;;5064261;28;20029;-87
2023/10/13 10:06:03;;;;;;;14.68;5.43;;;;;;;;;;5065754;28;20039;-86
2023/10/13 10:08:48;;;;;;;14.38;5.40;;;;;;;;;;5072921;28;20070;-86
2023/10/13 10:11:35;;;;;;;17.98;5.80;;;;;;;;;;5068657;28;20020;-79
2023/10/13 10:14:00;;;;;;;18.83;5.43;;;;;;;;;;5048340;28;20033;-79
2023/10/13 10:17:08;;;;;;;11.33;5.20;;;;;;;;;;5049041;28;20024;-79
2023/10/13 10:19:54;;;;;;;12.65;5.05;;;;;;;;;;5051886;28;20277;-79
2023/10/13 10:22:33;;;;;;;10.68;5.00;;;;;;;;;;5045577;28;20051;-79
2023/10/13 10:25:03;;;;;;;16.90;5.40;;;;;;;;;;5063295;28;20154;-79
2023/10/13 10:27:32;;;;;;;13.73;5.38;;;;;;;;;;5063323;28;20033;-79
2023/10/13 10:29:58;;;;;;;11.88;4.82;;;;;;;;;;5045681;28;20028;-79
2023/10/13 10:32:36;;;;;;;17.65;5.72;;;;;;;;;;5063825;28;21478;-78
2023/10/13 10:35:07;;;;;;;16.33;5.43;;;;;;;;;;5046502;28;20025;-79
2023/10/13 10:37:34;;;;;;;14.40;5.30;;;;;;;;;;5047356;28;20059;-79
2023/10/13 10:40:01;;;;;;;10.93;5.43;;;;;;;;;;5066068;28;20393;-79
2023/10/13 10:42:29;;;;;;;13.93;5.32;;;;;;;;;;5060593;28;20055;-79
2023/10/13 10:45:05;;;;;;;16.45;5.35;;;;;;;;;;5066850;28;20027;-78
2023/10/13 10:47:31;;;;;;;14.70;5.32;;;;;;;;;;5070759;28;20025;-79
2023/10/13 10:50:07;;;;;;;12.05;4.93;;;;;;;;;;5067915;28;20025;-78
2023/10/13 10:52:36;;;;;;;12.18;5.28;;;;;;;;;;5047704;28;20036;-78
2023/10/13 10:55:06;;;;;;;15.73;5.25;;;;;;;;;;5069164;28;20043;-79
2023/10/13 10:57:37;;;;;;;16.15;5.40;;;;;;;;;;5047196;28;20054;-79
2023/10/13 11:00:11;;;;;;;13.77;5.20;;;;;;;;;;5068724;28;20098;-81
2023/10/13 11:02:39;;;;;;;15.80;5.57;;;;;;;;;;5067046;28;20032;-80
2023/10/13 11:05:07;;;;;;;13.38;5.00;;;;;;;;;;5050095;28;20029;-81
2023/10/13 11:07:34;;;;;;;14.55;5.15;;;;;;;;;;5071588;28;20041;-81
2023/10/13 11:10:11;;;;;;;14.05;5.50;;;;;;;;;;5078668;28;20477;-81
2023/10/13 11:12:39;;;;;;;15.80;5.35;;;;;;;;;;5070689;28;20021;-81
2023/10/13 11:15:53;;;;;;;13.75;5.35;;;;;;;;;;5066099;28;20392;-81
2023/10/13 11:17:58;;;;;;;17.45;5.60;;;;;;;;;;5063684;28;20055;-81
2023/10/13 11:20:33;;;;;;;17.13;5.57;;;;;;;;;;5073304;28;20107;-79
2023/10/13 11:22:59;;;;;;;17.55;6.28;;;;;;;;;;5051317;28;20071;-79
2023/10/13 11:25:29;;;;;;;12.02;5.88;;;;;;;;;;5054524;28;20074;-79
2023/10/13 11:27:59;;;;;;;15.52;6.20;;;;;;;;;;5064375;28;20714;-79
2023/10/13 11:30:31;;;;;;;13.90;5.45;;;;;;;;;;5047088;28;20115;-79
2023/10/13 11:33:02;;;;;;;14.07;5.50;;;;;;;;;;5069257;28;20525;-80
2023/10/13 11:35:48;;;;;;;14.52;5.95;;;;;;;;;;5050586;28;20024;-79
2023/10/13 11:38:14;;;;;;;12.02;5.32;;;;;;;;;;5071626;28;20074;-80
2023/10/13 11:41:33;;;;;;;11.88;5.30;;;;;;;;;;5065396;28;20025;-80
2023/10/13 11:43:26;;;;;;;13.98;5.35;;;;;;;;;;5060264;28;20033;-80
2023/10/13 11:48:41;;;;;;;13.93;5.40;;;;;;;;;;5064657;28;22209;-80
2023/10/13 11:51:08;;;;;;;14.25;5.50;;;;;;;;;;5053264;28;20020;-79
2023/10/13 11:53:38;;;;;;;11.93;5.57;;;;;;;;;;5053836;28;20054;-79
2023/10/13 11:56:11;;;;;;;14.35;5.47;;;;;;;;;;5059347;28;20503;-79
2023/10/13 11:58:37;;;;;;;18.92;5.80;;;;;;;;;;5065679;28;20518;-79
2023/10/13 12:06:32;;;;;;;14.60;6.13;;;;;;;;;;5048761;28;20044;-80
2023/10/13 12:09:11;;;;;;;17.02;6.00;;;;;;;;;;5035788;28;20408;-80
2023/10/13 12:11:41;;;;;;;14.15;6.03;;;;;;;;;;5040139;28;20032;-80
2023/10/13 12:14:27;;;;;;;17.55;6.15;;;;;;;;;;5043595;28;20028;-79
2023/10/13 12:16:52;;;;;;;12.23;5.70;;;;;;;;;;5063460;28;20032;-80
2023/10/13 12:19:24;;;;;;;14.98;6.45;;;;;;;;;;5056314;28;20055;-80
2023/10/13 12:21:54;;;;;;;17.42;6.28;;;;;;;;;;5048215;28;20036;-80
2023/10/13 12:27:00;;;;;;;15.50;6.18;;;;;;;;;;5057761;28;20043;-80
2023/10/13 12:29:29;;;;;;;16.15;5.95;;;;;;;;;;5062485;28;20475;-80
2023/10/13 12:32:14;;;;;;;14.23;5.90;;;;;;;;;;5052159;28;20036;-85
2023/10/13 12:53:55;;;;;;;14.13;5.75;;;;;;;;;;5052561;28;20064;-82
2023/10/13 12:56:28;;;;;;;16.80;5.65;;;;;;;;;;5040417;28;20066;-86
2023/10/13 12:58:54;;;;;;;16.75;5.72;;;;;;;;;;5038918;28;20024;-82
2023/10/13 13:01:32;;;;;;;16.65;5.93;;;;;;;;;;5057165;28;20145;-85
2023/10/13 13:03:58;;;;;;;15.30;6.20;;;;;;;;;;5042071;28;20043;-85
2023/10/13 13:06:26;;;;;;;16.02;6.00;;;;;;;;;;5060100;28;20028;-85
2023/10/13 13:09:00;;;;;;;14.07;5.22;;;;;;;;;;5041122;28;20071;-85
2023/10/13 13:11:28;;;;;;;15.65;5.75;;;;;;;;;;5052816;28;20431;-85
2023/10/13 13:13:54;;;;;;;17.83;5.55;;;;;;;;;;5040706;28;20464;-84
2023/10/13 13:16:23;;;;;;;17.33;5.50;;;;;;;;;;5055227;28;20029;-86
2023/10/13 13:18:50;;;;;;;19.52;5.65;;;;;;;;;;5035013;28;20020;-84
2023/10/13 13:21:25;;;;;;;15.77;5.50;;;;;;;;;;5033275;28;20400;-85
2023/10/13 13:23:51;;;;;;;12.88;5.03;;;;;;;;;;5036549;28;20435;-86
2023/10/13 13:26:17;;;;;;;13.00;5.15;;;;;;;;;;5043540;28;20036;-85
2023/10/13 13:28:43;;;;;;;16.33;5.22;;;;;;;;;;5041895;28;20056;-81
2023/10/13 13:31:12;;;;;;;15.50;5.35;;;;;;;;;;5039393;28;20051;-85
2023/10/13 13:33:43;;;;;;;13.15;5.30;;;;;;;;;;5045352;28;20158;-86
2023/10/13 13:36:13;;;;;;;13.98;4.93;;;;;;;;;;5048376;28;20519;-86
2023/10/13 13:38:40;;;;;;;15.15;5.00;;;;;;;;;;5041754;28;20485;-86
2023/10/13 13:41:14;;;;;;;13.98;4.82;;;;;;;;;;5039752;28;20029;-79
2023/10/13 13:44:07;;;;;;;13.38;4.82;;;;;;;;;;5044835;28;20344;-78
2023/10/13 13:46:32;;;;;;;12.63;4.80;;;;;;;;;;5062898;28;20031;-79
2023/10/13 13:48:59;;;;;;;15.32;5.10;;;;;;;;;;5061134;28;20117;-78
2023/10/13 13:51:28;;;;;;;14.98;4.97;;;;;;;;;;5059723;28;20241;-78
2023/10/13 13:53:58;;;;;;;18.92;4.70;;;;;;;;;;5039664;28;20040;-79
2023/10/13 13:56:28;;;;;;;22.75;5.35;;;;;;;;;;5060609;28;20028;-78
2023/10/13 13:58:55;;;;;;;14.68;4.63;;;;;;;;;;5059267;28;20760;-80
2023/10/13 14:01:30;;;;;;;13.68;4.43;;;;;;;;;;5058917;28;20112;-78
2023/10/13 14:04:02;;;;;;;15.95;4.30;;;;;;;;;;5061778;28;21526;-78
2023/10/13 14:06:28;;;;;;;14.10;4.57;;;;;;;;;;5042550;28;20025;-79
2023/10/13 14:08:59;;;;;;;17.58;4.20;;;;;;;;;;5065802;28;20039;-78
2023/10/13 14:14:28;;;;;;;12.20;4.63;;;;;;;;;;5061894;28;20051;-79
2023/10/13 14:17:02;;;;;;;16.35;4.68;;;;;;;;;;5049082;28;20413;-78
2023/10/13 14:19:27;;;;;;;10.30;4.47;;;;;;;;;;5067477;28;20016;-78
2023/10/13 14:21:56;;;;;;;13.20;4.35;;;;;;;;;;5037570;28;20025;-78
2023/10/13 14:24:29;;;;;;;17.20;4.82;;;;;;;;;;5070025;28;20063;-78
2023/10/13 14:27:07;;;;;;;11.02;4.57;;;;;;;;;;5048412;28;20065;-78
2023/10/13 14:29:32;;;;;;;12.98;4.50;;;;;;;;;;5057704;28;20032;-78
2023/10/13 14:31:59;;;;;;;19.45;3.95;;;;;;;;;;5042905;28;20477;-78
2023/10/13 14:34:26;;;;;;;12.68;4.70;;;;;;;;;;5074871;28;20539;-79
2023/10/13 14:36:52;;;;;;;12.82;4.53;;;;;;;;;;5054389;28;20087;-81
2023/10/13 14:39:20;;;;;;;8.90;4.10;;;;;;;;;;5045710;28;20024;-78
2023/10/13 14:41:47;;;;;;;11.63;4.20;;;;;;;;;;5045217;28;20024;-78
2023/10/13 14:44:13;;;;;;;16.95;5.05;;;;;;;;;;5052745;28;20012;-78
2023/10/13 14:46:39;;;;;;;11.48;4.30;;;;;;;;;;5043432;28;20036;-78
2023/10/13 14:49:05;;;;;;;13.15;4.25;;;;;;;;;;5042161;28;20107;-78
2023/10/13 14:51:31;;;;;;;14.75;4.72;;;;;;;;;;5074704;28;20035;-86
2023/10/13 14:53:59;;;;;;;12.50;4.70;;;;;;;;;;5058940;28;20484;-83
2023/10/13 14:56:26;;;;;;;12.68;4.78;;;;;;;;;;5047943;28;20039;-85
2023/10/13 14:58:53;;;;;;;11.70;4.60;;;;;;;;;;5066171;28;20325;-84
2023/10/13 15:01:21;;;;;;;11.80;4.70;;;;;;;;;;5060188;28;20024;-85
2023/10/13 15:03:51;;;;;;;14.13;4.70;;;;;;;;;;5064499;28;20077;-85
2023/10/13 15:06:24;;;;;;;13.15;4.55;;;;;;;;;;5067353;28;20491;-85
2023/10/13 15:08:50;;;;;;;11.85;5.07;;;;;;;;;;5067473;28;20495;-85
2023/10/13 15:11:19;;;;;;;14.52;4.63;;;;;;;;;;5040641;28;20078;-85
2023/10/13 15:13:45;;;;;;;17.30;4.78;;;;;;;;;;5062277;28;20500;-81
2023/10/13 15:16:16;;;;;;;13.88;4.43;;;;;;;;;;5057501;28;20115;-84
2023/10/13 15:18:43;;;;;;;12.43;4.20;;;;;;;;;;5048274;28;20028;-81
2023/10/13 15:21:08;;;;;;;11.10;4.38;;;;;;;;;;5015556;28;20131;-80
2023/10/13 15:23:42;;;;;;;13.65;4.75;;;;;;;;;;5036754;28;20556;-84
2023/10/13 15:26:14;;;;;;;13.93;4.70;;;;;;;;;;5059029;28;20333;-86
2023/10/13 15:28:48;;;;;;;11.98;4.38;;;;;;;;;;5054449;28;20037;-83
2023/10/13 15:31:37;;;;;;;14.30;5.07;;;;;;;;;;5060141;28;20036;-84
2023/10/13 15:34:17;;;;;;;13.00;4.72;;;;;;;;;;5069856;28;20068;-84
2023/10/13 15:36:44;;;;;;;14.45;4.72;;;;;;;;;;5058671;28;20028;-81
2023/10/13 15:39:15;;;;;;;13.52;5.15;;;;;;;;;;5052246;28;20377;-85
2023/10/13 15:41:41;;;;;;;11.13;4.85;;;;;;;;;;5039812;28;20020;-84
2023/10/13 15:44:13;;;;;;;14.50;5.20;;;;;;;;;;5047705;28;20031;-84
2023/10/13 15:46:39;;;;;;;16.67;5.25;;;;;;;;;;5035458;28;20033;-83
2023/10/13 15:49:07;;;;;;;10.57;5.10;;;;;;;;;;5044312;28;20035;-82
2023/10/13 15:51:38;;;;;;;11.50;5.40;;;;;;;;;;5061131;28;20468;-83
2023/10/13 15:54:03;;;;;;;16.20;5.53;;;;;;;;;;5035151;28;20529;-83
2023/10/13 15:56:33;;;;;;;13.43;5.78;;;;;;;;;;5056629;28;20028;-84
2023/10/13 15:59:01;;;;;;;15.40;5.20;;;;;;;;;;5063787;28;20552;-85
2023/10/13 16:01:26;;;;;;;10.75;4.40;;;;;;;;;;5054487;28;20036;-81
2023/10/13 16:03:52;;;;;;;12.27;4.80;;;;;;;;;;5047188;28;20036;-81
2023/10/13 16:06:25;;;;;;;13.65;5.20;;;;;;;;;;5065344;28;20024;-81
2023/10/13 16:08:51;;;;;;;11.25;4.43;;;;;;;;;;5062943;28;20025;-81
2023/10/13 16:11:19;;;;;;;11.20;4.78;;;;;;;;;;5059542;28;20043;-81
2023/10/13 16:13:50;;;;;;;12.77;4.70;;;;;;;;;;5046142;28;20063;-81
2023/10/13 16:16:16;;;;;;;11.70;4.78;;;;;;;;;;5066753;28;20483;-81
2023/10/13 16:18:45;;;;;;;15.48;4.68;;;;;;;;;;5044825;28;20040;-80
2023/10/13 16:21:17;;;;;;;13.50;4.97;;;;;;;;;;5058301;28;20031;-80
2023/10/13 16:23:50;;;;;;;13.75;5.15;;;;;;;;;;5062939;28;20560;-81
2023/10/13 16:26:21;;;;;;;14.27;5.00;;;;;;;;;;5065528;28;20472;-81
2023/10/13 16:28:57;;;;;;;13.57;4.70;;;;;;;;;;5058405;28;20096;-80
2023/10/13 16:31:23;;;;;;;15.00;4.70;;;;;;;;;;5051598;28;20024;-81
2023/10/13 16:33:49;;;;;;;12.40;4.68;;;;;;;;;;5070457;28;20086;-81
2023/10/13 16:36:14;;;;;;;10.20;4.40;;;;;;;;;;5060833;28;20021;-80
2023/10/13 16:38:40;;;;;;;10.85;5.00;;;;;;;;;;5062210;28;20025;-81
2023/10/13 16:41:08;;;;;;;16.00;4.85;;;;;;;;;;5068438;28;20064;-81
2023/10/13 16:43:35;;;;;;;15.68;5.35;;;;;;;;;;5048681;28;20107;-81
2023/10/13 16:46:06;;;;;;;14.32;4.70;;;;;;;;;;5062062;28;20036;-81
2023/10/13 16:48:32;;;;;;;12.30;5.10;;;;;;;;;;5046890;28;20039;-80
2023/10/13 16:50:59;;;;;;;11.60;4.60;;;;;;;;;;5056704;28;20664;-81
2023/10/13 16:53:25;;;;;;;11.77;4.65;;;;;;;;;;5053660;28;20052;-81
2023/10/13 16:55:50;;;;;;;10.52;4.43;;;;;;;;;;5047567;28;20428;-80
2023/10/13 16:58:16;;;;;;;13.15;4.82;;;;;;;;;;5045967;28;20043;-81
2023/10/13 17:00:46;;;;;;;12.75;4.90;;;;;;;;;;5054157;28;20492;-81
2023/10/13 17:03:12;;;;;;;12.52;4.80;;;;;;;;;;5053752;28;20036;-80
2023/10/13 17:05:49;;;;;;;14.70;4.93;;;;;;;;;;5060100;28;20028;-81
2023/10/13 17:08:15;;;;;;;12.27;4.70;;;;;;;;;;5058839;28;20043;-81
2023/10/13 17:10:40;;;;;;;12.63;4.80;;;;;;;;;;5060325;28;20055;-80
2023/10/13 17:13:07;;;;;;;14.40;5.45;;;;;;;;;;5040410;28;20455;-81
2023/10/13 17:15:33;;;;;;;11.15;5.55;;;;;;;;;;5045072;28;20028;-80
2023/10/13 17:18:00;;;;;;;14.85;6.03;;;;;;;;;;5065364;28;20096;-81
2023/10/13 17:20:26;;;;;;;13.02;6.13;;;;;;;;;;5043830;28;20025;-81
2023/10/13 17:22:51;;;;;;;11.55;6.18;;;;;;;;;;5038262;28;20029;-81
2023/10/13 17:25:17;;;;;;;14.18;6.53;;;;;;;;;;5042971;28;20024;-80
2023/10/13 17:27:43;;;;;;;14.20;6.93;;;;;;;;;;5040332;28;20036;-80
2023/10/13 17:30:09;;;;;;;14.70;6.72;;;;;;;;;;5056631;28;20101;-80
2023/10/13 17:32:36;;;;;;;12.05;6.55;;;;;;;;;;5051441;28;20484;-80
2023/10/13 17:35:02;;;;;;;11.52;6.13;;;;;;;;;;5051840;28;20036;-80
2023/10/13 17:37:33;;;;;;;14.63;6.35;;;;;;;;;;5041338;28;20028;-80
2023/10/13 17:40:03;;;;;;;18.02;6.43;;;;;;;;;;5052293;28;20032;-80
2023/10/13 17:42:29;;;;;;;14.07;6.30;;;;;;;;;;5061456;28;20035;-80
2023/10/13 17:44:55;;;;;;;11.82;6.00;;;;;;;;;;5063148;28;20035;-80
2023/10/13 17:47:20;;;;;;;16.73;6.22;;;;;;;;;;5061861;28;20025;-81
2023/10/13 17:49:46;;;;;;;13.73;5.78;;;;;;;;;;5042826;28;20400;-80
2023/10/13 17:52:12;;;;;;;14.02;5.78;;;;;;;;;;5047737;28;20021;-80
2023/10/13 17:54:38;;;;;;;10.80;5.50;;;;;;;;;;5052198;28;20036;-80
2023/10/13 17:57:06;;;;;;;13.35;6.18;;;;;;;;;;5057880;28;20097;-80
2023/10/13 17:59:32;;;;;;;15.18;6.72;;;;;;;;;;5040373;28;20654;-80